Time;durP1;ratioP1;P1;durP2;ratioP2;P2;SDS_P1;SDS_P2;PMS_P1;PMS_P2;Temp;Humidity;BMP_temperature;BMP_pressure;BME280_temperature;BME280_humidity;BME280_pressure;Samples;Min_cycle;Max_cycle;Signal;HPM_P1;HPM_P2
2021/11/21 00:01:13;;;;;;;19.52;7.40;;;4.20;99.90;;;;;;5116304;28;20075;-83
2021/11/21 00:03:39;;;;;;;19.92;7.10;;;4.40;99.90;;;;;;5116645;28;20024;-83
2021/11/21 00:06:05;;;;;;;14.80;6.10;;;4.30;99.90;;;;;;5114740;28;20024;-83
2021/11/21 00:08:31;;;;;;;23.33;6.70;;;4.30;99.90;;;;;;5115164;28;20023;-83
2021/11/21 00:10:57;;;;;;;15.23;5.25;;;4.30;99.90;;;;;;5116509;28;20016;-82
2021/11/21 00:13:23;;;;;;;15.73;5.53;;;4.30;99.90;;;;;;5115260;28;20111;-83
2021/11/21 00:15:49;;;;;;;16.00;4.65;;;4.30;99.90;;;;;;5116187;28;20042;-83
2021/11/21 00:18:15;;;;;;;20.10;6.65;;;4.30;99.90;;;;;;5115151;28;20461;-83
2021/11/21 00:20:43;;;;;;;31.95;11.35;;;4.20;99.90;;;;;;5115136;28;20537;-83
2021/11/21 00:23:09;;;;;;;21.30;7.57;;;4.20;99.90;;;;;;5115116;28;20028;-83
2021/11/21 00:25:35;;;;;;;17.55;5.40;;;4.20;99.90;;;;;;5114739;28;20484;-83
2021/11/21 00:28:02;;;;;;;16.10;5.25;;;4.10;99.90;;;;;;5114738;28;20122;-82
2021/11/21 00:30:28;;;;;;;14.90;5.55;;;4.00;99.90;;;;;;5114937;28;20024;-83
2021/11/21 00:32:54;;;;;;;24.85;5.82;;;4.00;99.90;;;;;;5116116;28;20016;-82
2021/11/21 00:35:20;;;;;;;17.55;5.70;;;3.90;99.90;;;;;;5115712;28;20089;-82
2021/11/21 00:37:46;;;;;;;15.98;5.93;;;3.90;99.90;;;;;;5114747;28;20063;-82
2021/11/21 00:40:11;;;;;;;16.65;5.28;;;3.90;99.90;;;;;;5115995;28;20470;-82
2021/11/21 00:42:38;;;;;;;17.02;5.18;;;4.00;99.90;;;;;;5114694;28;20024;-82
2021/11/21 00:45:06;;;;;;;24.55;6.45;;;4.00;99.90;;;;;;5115578;28;20023;-82
2021/11/21 00:47:32;;;;;;;15.80;5.65;;;4.10;99.90;;;;;;5114636;28;20111;-83
2021/11/21 00:49:58;;;;;;;13.35;5.28;;;4.20;99.90;;;;;;5114482;28;20118;-82
2021/11/21 00:52:24;;;;;;;21.33;6.22;;;4.30;99.90;;;;;;5114476;28;20016;-83
2021/11/21 00:54:56;;;;;;;21.35;6.30;;;4.30;99.90;;;;;;5115648;28;20016;-82
2021/11/21 00:57:22;;;;;;;21.20;6.70;;;4.40;99.90;;;;;;5114428;28;20024;-82
2021/11/21 00:59:48;;;;;;;15.82;5.90;;;4.30;99.90;;;;;;5114362;28;20583;-82
2021/11/21 01:02:15;;;;;;;20.25;5.93;;;4.30;99.90;;;;;;5114322;28;20076;-83
2021/11/21 01:04:42;;;;;;;19.48;5.38;;;4.20;99.90;;;;;;5115242;28;20102;-82
2021/11/21 01:07:10;;;;;;;17.95;6.10;;;4.20;99.90;;;;;;5115191;28;20103;-82
2021/11/21 01:09:37;;;;;;;19.20;6.13;;;4.10;99.90;;;;;;5115646;28;20028;-82
2021/11/21 01:12:05;;;;;;;21.67;6.00;;;4.10;99.90;;;;;;5113775;28;20024;-82
2021/11/21 01:14:31;;;;;;;19.67;5.97;;;4.00;99.90;;;;;;5113540;28;20105;-82
2021/11/21 01:16:57;;;;;;;19.67;5.82;;;4.00;99.90;;;;;;5113919;28;20481;-82
2021/11/21 01:19:23;;;;;;;24.65;6.78;;;4.10;99.90;;;;;;5115186;28;20492;-82
2021/11/21 01:21:49;;;;;;;16.20;5.93;;;4.20;99.90;;;;;;5113996;28;20114;-83
2021/11/21 01:24:29;;;;;;;22.05;6.45;;;4.30;99.90;;;;;;5114686;28;20106;-82
2021/11/21 01:26:55;;;;;;;17.48;6.43;;;4.40;99.90;;;;;;5099871;28;20087;-82
2021/11/21 01:29:21;;;;;;;22.75;6.40;;;4.40;99.90;;;;;;5113448;28;20437;-82
2021/11/21 01:31:47;;;;;;;19.10;5.65;;;4.50;99.90;;;;;;5113762;28;20051;-82
2021/11/21 01:34:15;;;;;;;15.57;5.68;;;4.60;99.90;;;;;;5113562;28;20473;-82
2021/11/21 01:36:41;;;;;;;19.77;6.30;;;4.60;99.90;;;;;;5114823;28;20092;-82
2021/11/21 01:39:07;;;;;;;19.40;6.25;;;4.60;99.90;;;;;;5114854;28;20024;-82
2021/11/21 01:41:34;;;;;;;17.23;5.65;;;4.60;99.90;;;;;;5113546;28;20056;-82
2021/11/21 01:44:00;;;;;;;20.20;6.43;;;4.70;99.90;;;;;;5115031;28;20350;-82
2021/11/21 01:46:38;;;;;;;16.35;6.57;;;4.70;99.90;;;;;;5114510;28;20079;-82
2021/11/21 01:49:05;;;;;;;20.70;7.03;;;4.70;99.90;;;;;;5113325;28;20495;-82
2021/11/21 01:51:31;;;;;;;17.63;6.47;;;4.70;99.90;;;;;;5114696;28;20090;-82
2021/11/21 01:53:57;;;;;;;19.98;7.05;;;4.70;99.90;;;;;;5113323;28;20044;-82
2021/11/21 01:56:26;;;;;;;17.52;6.82;;;4.80;99.90;;;;;;5096710;28;20020;-82
2021/11/21 01:58:53;;;;;;;18.17;7.05;;;4.80;99.90;;;;;;5092923;28;20028;-82
2021/11/21 02:01:20;;;;;;;18.60;6.50;;;4.80;99.90;;;;;;5094111;28;20020;-82
2021/11/21 02:03:45;;;;;;;19.35;6.45;;;4.90;99.90;;;;;;5092879;28;20028;-82
2021/11/21 02:06:11;;;;;;;21.02;6.40;;;4.90;99.90;;;;;;5108582;28;20427;-82
2021/11/21 02:08:37;;;;;;;20.73;6.00;;;5.00;99.90;;;;;;5114513;28;20019;-82
2021/11/21 02:11:03;;;;;;;18.02;5.65;;;5.00;99.90;;;;;;5114329;28;20041;-82
2021/11/21 02:13:29;;;;;;;15.73;5.50;;;5.00;99.90;;;;;;5112799;28;20019;-82
2021/11/21 02:15:55;;;;;;;15.02;5.72;;;5.10;99.90;;;;;;5114208;28;20020;-82
2021/11/21 02:18:24;;;;;;;16.77;5.63;;;5.10;99.90;;;;;;5112919;28;20038;-82
2021/11/21 02:20:55;;;;;;;15.68;6.10;;;5.10;99.90;;;;;;5113013;28;20028;-82
2021/11/21 02:23:24;;;;;;;25.30;6.72;;;5.20;99.90;;;;;;5113970;28;20019;-82
2021/11/21 02:25:51;;;;;;;18.48;5.88;;;5.20;99.90;;;;;;5112667;28;20065;-82
2021/11/21 02:28:17;;;;;;;18.63;6.00;;;5.20;99.90;;;;;;5112526;28;20043;-82
2021/11/21 02:30:44;;;;;;;21.50;6.40;;;5.20;99.90;;;;;;5114100;28;20035;-82
2021/11/21 02:33:13;;;;;;;16.83;5.88;;;5.20;99.90;;;;;;5112642;28;20038;-82
2021/11/21 02:35:42;;;;;;;15.32;5.32;;;5.20;99.90;;;;;;5113907;28;20047;-82
2021/11/21 02:38:09;;;;;;;14.82;5.97;;;5.30;99.90;;;;;;5112689;28;20030;-82
2021/11/21 02:40:35;;;;;;;16.48;6.82;;;5.30;99.90;;;;;;5112715;28;20016;-82
2021/11/21 02:43:01;;;;;;;16.92;5.57;;;5.30;99.90;;;;;;5112517;28;20024;-82
2021/11/21 02:45:27;;;;;;;16.77;5.85;;;5.30;99.90;;;;;;5113977;28;20023;-82
2021/11/21 02:47:52;;;;;;;17.30;6.25;;;5.30;99.90;;;;;;5112709;28;20453;-82
2021/11/21 02:50:22;;;;;;;21.45;6.07;;;5.30;99.90;;;;;;5113799;28;20507;-82
2021/11/21 02:52:49;;;;;;;13.70;5.55;;;5.30;99.90;;;;;;5113493;28;20481;-82
2021/11/21 02:55:15;;;;;;;13.02;5.38;;;5.40;99.90;;;;;;5112581;28;20497;-82
2021/11/21 02:57:41;;;;;;;17.05;5.85;;;5.40;99.90;;;;;;5112396;28;20020;-82
2021/11/21 03:00:11;;;;;;;16.23;6.03;;;5.40;99.90;;;;;;5113819;28;20028;-82
2021/11/21 03:02:45;;;;;;;19.27;7.47;;;5.30;99.90;;;;;;5113501;28;20027;-82
2021/11/21 03:05:11;;;;;;;17.95;6.32;;;5.30;99.90;;;;;;5113352;28;20028;-82
2021/11/21 03:07:37;;;;;;;23.13;8.55;;;5.40;99.90;;;;;;5112476;28;20020;-82
2021/11/21 03:10:05;;;;;;;20.83;7.85;;;5.30;99.90;;;;;;5113651;28;20081;-82
2021/11/21 03:12:31;;;;;;;19.23;7.20;;;5.30;99.90;;;;;;5112415;28;20076;-82
2021/11/21 03:14:57;;;;;;;18.67;7.13;;;5.40;99.90;;;;;;5113623;28;20106;-82
2021/11/21 03:17:22;;;;;;;16.92;7.75;;;5.40;99.90;;;;;;5113654;28;20020;-82
2021/11/21 03:19:49;;;;;;;18.27;7.10;;;5.40;99.90;;;;;;5112256;28;20023;-82
2021/11/21 03:22:15;;;;;;;18.73;6.95;;;5.40;99.90;;;;;;5112330;28;20023;-82
2021/11/21 03:24:41;;;;;;;15.57;7.28;;;5.50;99.90;;;;;;5112250;28;20378;-81
2021/11/21 03:27:07;;;;;;;15.15;7.25;;;5.60;99.90;;;;;;5112291;28;20028;-82
2021/11/21 03:29:33;;;;;;;16.13;7.20;;;5.60;99.90;;;;;;5112002;28;20044;-81
2021/11/21 03:32:00;;;;;;;14.15;7.13;;;5.60;99.90;;;;;;5112263;28;20058;-81
2021/11/21 03:34:26;;;;;;;19.83;7.97;;;5.60;99.90;;;;;;5112101;28;20447;-81
2021/11/21 03:36:52;;;;;;;17.77;9.02;;;5.70;99.90;;;;;;5114251;28;20111;-82
2021/11/21 03:39:18;;;;;;;22.38;8.70;;;5.70;99.90;;;;;;5117494;28;20035;-82
2021/11/21 03:41:44;;;;;;;16.08;7.38;;;5.70;99.90;;;;;;5117179;28;20031;-82
2021/11/21 03:44:10;;;;;;;16.48;7.45;;;5.70;99.90;;;;;;5115580;28;20028;-82
2021/11/21 03:46:38;;;;;;;15.05;6.47;;;5.80;99.90;;;;;;5115786;28;20072;-82
2021/11/21 03:49:06;;;;;;;21.00;7.28;;;5.80;99.90;;;;;;5115779;28;20032;-82
2021/11/21 03:51:32;;;;;;;13.77;7.38;;;5.80;99.90;;;;;;5117021;28;20423;-82
2021/11/21 03:53:58;;;;;;;18.20;7.88;;;5.60;99.90;;;;;;5115681;28;20019;-82
2021/11/21 03:56:24;;;;;;;24.38;12.45;;;5.50;99.90;;;;;;5115467;28;20496;-82
2021/11/21 03:58:50;;;;;;;16.42;7.60;;;5.50;99.90;;;;;;5116863;28;20024;-82
2021/11/21 04:01:16;;;;;;;17.08;7.53;;;5.50;99.90;;;;;;5116759;28;20035;-82
2021/11/21 04:03:43;;;;;;;18.17;7.68;;;5.40;99.90;;;;;;5115403;28;20024;-82
2021/11/21 04:06:10;;;;;;;16.52;8.35;;;5.40;99.90;;;;;;5115151;28;20080;-82
2021/11/21 04:08:36;;;;;;;19.58;7.53;;;5.40;99.90;;;;;;5115282;28;20095;-82
2021/11/21 04:11:02;;;;;;;23.35;8.70;;;5.40;99.90;;;;;;5116609;28;20016;-82
2021/11/21 04:13:28;;;;;;;20.92;8.32;;;5.30;99.90;;;;;;5115307;28;20169;-82
2021/11/21 04:15:54;;;;;;;18.92;8.38;;;5.30;99.90;;;;;;5114931;28;20491;-82
2021/11/21 04:18:20;;;;;;;20.67;9.05;;;5.40;99.90;;;;;;5116431;28;20034;-82
2021/11/21 04:20:46;;;;;;;22.88;8.95;;;5.40;99.90;;;;;;5115105;28;20031;-82
2021/11/21 04:23:12;;;;;;;18.95;8.35;;;5.30;99.90;;;;;;5114827;28;20016;-82
2021/11/21 04:25:38;;;;;;;15.93;7.53;;;5.40;99.90;;;;;;5114744;28;20473;-82
2021/11/21 04:28:04;;;;;;;20.92;9.20;;;5.40;99.90;;;;;;5114757;28;20509;-82
2021/11/21 04:30:30;;;;;;;17.23;7.60;;;5.40;99.90;;;;;;5114842;28;20504;-82
2021/11/21 04:32:55;;;;;;;20.60;8.25;;;5.40;99.90;;;;;;5114610;28;20088;-82
2021/11/21 04:35:21;;;;;;;18.85;8.43;;;5.40;99.90;;;;;;5114352;28;20478;-82
2021/11/21 04:37:48;;;;;;;20.30;8.90;;;5.40;99.90;;;;;;5114743;28;20019;-82
2021/11/21 04:40:16;;;;;;;20.02;9.52;;;5.50;99.90;;;;;;5116272;28;20024;-82
2021/11/21 04:42:43;;;;;;;18.40;10.23;;;5.50;99.90;;;;;;5114458;28;20501;-82
2021/11/21 04:45:10;;;;;;;20.88;9.88;;;5.50;99.90;;;;;;5114436;28;20069;-81
2021/11/21 04:47:36;;;;;;;20.95;10.10;;;5.60;99.90;;;;;;5116090;28;20110;-81
2021/11/21 04:50:03;;;;;;;19.52;9.90;;;5.60;99.90;;;;;;5114439;28;20482;-81
2021/11/21 04:52:28;;;;;;;18.35;10.55;;;5.60;99.90;;;;;;5114201;28;20027;-82
2021/11/21 04:54:54;;;;;;;17.98;9.20;;;5.60;99.90;;;;;;5115447;28;20028;-82
2021/11/21 04:57:20;;;;;;;17.65;9.43;;;5.70;99.90;;;;;;5114347;28;20027;-82
2021/11/21 04:59:46;;;;;;;17.35;10.07;;;5.70;99.90;;;;;;5115891;28;20069;-82
2021/11/21 05:02:11;;;;;;;21.42;9.57;;;5.70;99.90;;;;;;5115419;27;20032;-82
2021/11/21 05:04:37;;;;;;;20.00;10.10;;;5.70;99.90;;;;;;5114012;28;20393;-82
2021/11/21 05:07:04;;;;;;;19.42;10.27;;;5.80;99.90;;;;;;5114506;28;20024;-82
2021/11/21 05:09:29;;;;;;;19.45;10.10;;;5.80;99.90;;;;;;5115298;28;20030;-82
2021/11/21 05:11:55;;;;;;;17.27;10.65;;;5.70;99.90;;;;;;5114049;28;20027;-82
2021/11/21 05:14:21;;;;;;;25.58;11.95;;;5.70;99.90;;;;;;5113851;28;20032;-82
2021/11/21 05:16:48;;;;;;;22.77;11.35;;;5.80;99.90;;;;;;5114085;28;20490;-82
2021/11/21 05:19:14;;;;;;;19.27;11.27;;;5.80;99.90;;;;;;5113946;28;20031;-82
2021/11/21 05:21:41;;;;;;;18.17;10.48;;;5.80;99.90;;;;;;5115234;28;20493;-82
2021/11/21 05:24:07;;;;;;;20.63;11.68;;;5.80;99.90;;;;;;5114772;28;20027;-82
2021/11/21 05:26:33;;;;;;;18.88;10.80;;;5.80;99.90;;;;;;5113799;28;20030;-83
2021/11/21 05:28:59;;;;;;;22.67;11.82;;;5.80;99.90;;;;;;5114871;28;20047;-82
2021/11/21 05:31:25;;;;;;;19.95;10.98;;;5.90;99.90;;;;;;5115339;28;20024;-82
2021/11/21 05:33:51;;;;;;;22.27;11.40;;;5.90;99.90;;;;;;5114871;28;20107;-83
2021/11/21 05:36:18;;;;;;;21.00;11.40;;;5.90;99.90;;;;;;5113697;28;20016;-83
2021/11/21 05:38:44;;;;;;;21.13;11.68;;;5.90;99.90;;;;;;5113694;28;20023;-82
2021/11/21 05:41:11;;;;;;;20.75;12.13;;;6.00;99.90;;;;;;5113314;28;20077;-83
2021/11/21 05:43:36;;;;;;;24.83;12.35;;;6.00;99.90;;;;;;5113301;28;20114;-82
2021/11/21 05:46:02;;;;;;;20.88;11.65;;;6.00;99.90;;;;;;5113544;28;20085;-82
2021/11/21 05:48:28;;;;;;;21.55;12.45;;;6.10;99.90;;;;;;5113329;28;20055;-82
2021/11/21 05:50:54;;;;;;;23.52;13.85;;;6.10;99.90;;;;;;5114717;28;20020;-83
2021/11/21 05:53:19;;;;;;;24.65;14.05;;;6.20;99.90;;;;;;5114286;28;20066;-83
2021/11/21 05:55:45;;;;;;;24.13;13.88;;;6.30;99.90;;;;;;5114098;28;20034;-83
2021/11/21 05:58:11;;;;;;;26.50;14.73;;;6.40;99.90;;;;;;5113162;28;20026;-83
2021/11/21 06:00:37;;;;;;;26.65;15.00;;;6.40;99.90;;;;;;5114445;28;20069;-83
2021/11/21 06:03:03;;;;;;;25.92;15.25;;;6.40;99.90;;;;;;5112910;28;20068;-84
2021/11/21 06:05:29;;;;;;;22.75;15.07;;;6.50;99.90;;;;;;5114707;28;20103;-83
2021/11/21 06:07:55;;;;;;;22.17;13.95;;;6.50;99.90;;;;;;5114328;28;20244;-83
2021/11/21 06:10:21;;;;;;;28.10;16.73;;;6.60;99.90;;;;;;5113014;28;20469;-83
2021/11/21 14:26:09;;;;;;;16.35;10.88;;;9.30;99.90;;;;;;5071473;28;20449;-85
2021/11/21 14:28:46;;;;;;;17.75;11.05;;;9.30;99.90;;;;;;5069959;28;20060;-86
2021/11/21 14:31:31;;;;;;;16.88;12.07;;;9.30;99.90;;;;;;5069521;28;20021;-86
2021/11/21 14:34:07;;;;;;;13.35;10.27;;;9.20;99.90;;;;;;5071003;28;20051;-86
2021/11/21 14:36:37;;;;;;;11.98;9.15;;;9.20;99.90;;;;;;5063528;28;20049;-86
2021/11/21 14:39:11;;;;;;;16.60;10.73;;;9.30;99.90;;;;;;5050720;28;20029;-85
2021/11/21 14:41:39;;;;;;;14.43;10.32;;;9.30;99.90;;;;;;5049575;28;20039;-87
2021/11/21 14:44:08;;;;;;;19.52;11.93;;;9.30;99.90;;;;;;5049497;28;20079;-87
2021/11/21 14:46:35;;;;;;;19.35;11.57;;;9.40;99.90;;;;;;5051623;28;20024;-86
2021/11/21 14:49:02;;;;;;;18.10;11.38;;;9.30;99.90;;;;;;5070113;28;20529;-86
2021/11/21 14:51:29;;;;;;;21.67;11.75;;;9.40;99.90;;;;;;5069223;28;20086;-85
2021/11/21 14:53:59;;;;;;;16.48;10.25;;;9.40;99.90;;;;;;5070347;28;20099;-86
2021/11/21 14:56:28;;;;;;;13.98;9.15;;;9.30;99.90;;;;;;5069395;28;20474;-86
2021/11/21 14:58:54;;;;;;;15.13;9.85;;;9.40;99.90;;;;;;5070411;28;20029;-86
2021/11/21 15:01:22;;;;;;;14.75;9.40;;;9.40;99.90;;;;;;5069119;28;20025;-86
2021/11/21 15:03:50;;;;;;;15.45;10.38;;;9.40;99.90;;;;;;5069077;28;20024;-88
2021/11/21 15:06:17;;;;;;;18.42;11.10;;;9.40;99.90;;;;;;5069059;28;20375;-86
2021/11/21 15:08:48;;;;;;;22.52;13.18;;;9.40;99.90;;;;;;5061490;28;20028;-87
2021/11/21 15:11:14;;;;;;;24.95;13.40;;;9.40;99.90;;;;;;5049348;28;20079;-87
2021/11/21 15:13:40;;;;;;;26.90;14.63;;;9.40;99.90;;;;;;5063972;28;20035;-88
2021/11/21 15:16:06;;;;;;;31.27;16.02;;;9.40;99.90;;;;;;5069227;28;20021;-88
2021/11/21 15:18:32;;;;;;;31.85;17.50;;;9.40;99.90;;;;;;5069650;28;20059;-87
2021/11/21 15:20:58;;;;;;;25.60;13.20;;;9.40;99.90;;;;;;5070024;28;20029;-87
2021/11/21 15:23:24;;;;;;;23.77;12.77;;;9.30;99.90;;;;;;5068739;28;20024;-87
2021/11/21 15:25:50;;;;;;;23.33;13.15;;;9.40;99.90;;;;;;5067049;28;20118;-86
2021/11/21 15:28:16;;;;;;;20.88;12.18;;;9.30;99.90;;;;;;5048773;28;20029;-87
2021/11/21 15:30:42;;;;;;;16.98;10.98;;;9.30;99.90;;;;;;5048806;28;20387;-86
2021/11/21 15:33:07;;;;;;;24.58;13.90;;;9.40;99.90;;;;;;5048597;28;20040;-82
2021/11/21 15:35:33;;;;;;;18.75;11.45;;;9.30;99.90;;;;;;5044969;28;20030;-85
2021/11/21 15:37:59;;;;;;;21.02;12.38;;;9.40;99.90;;;;;;5035440;28;20098;-82
2021/11/21 15:40:26;;;;;;;24.52;14.20;;;9.30;99.90;;;;;;5045919;28;20033;-83
2021/11/21 15:42:52;;;;;;;21.20;12.70;;;9.30;99.90;;;;;;5051989;28;20032;-84
2021/11/21 15:45:19;;;;;;;17.23;9.80;;;9.30;99.90;;;;;;5036094;28;20026;-82
2021/11/21 15:47:46;;;;;;;18.45;10.35;;;9.30;99.90;;;;;;5036028;28;20021;-83
2021/11/21 15:50:17;;;;;;;13.32;9.05;;;9.30;99.90;;;;;;5045404;28;20514;-82
2021/11/21 15:52:42;;;;;;;13.75;9.18;;;9.30;99.90;;;;;;5054734;28;20024;-82
2021/11/21 15:55:08;;;;;;;16.42;9.93;;;9.30;99.90;;;;;;5055853;28;20131;-82
2021/11/21 15:57:34;;;;;;;16.98;8.80;;;9.30;99.90;;;;;;5054661;28;20025;-82
2021/11/21 16:00:00;;;;;;;21.63;11.82;;;9.30;99.90;;;;;;5054640;28;20029;-85
2021/11/21 16:02:26;;;;;;;19.63;11.02;;;9.30;99.90;;;;;;5055185;28;20029;-81
2021/11/21 16:04:52;;;;;;;31.30;15.10;;;9.30;99.90;;;;;;5055784;28;20047;-81
2021/11/21 16:07:19;;;;;;;19.50;11.48;;;9.30;99.90;;;;;;5054539;28;20368;-81
2021/11/21 16:09:46;;;;;;;19.58;12.00;;;9.30;99.90;;;;;;5040703;28;20037;-80
2021/11/21 16:12:11;;;;;;;15.35;10.30;;;9.30;99.90;;;;;;5034477;28;20072;-81
2021/11/21 16:14:42;;;;;;;17.58;10.25;;;9.20;99.90;;;;;;5035617;28;20030;-81
2021/11/21 16:17:09;;;;;;;14.70;9.65;;;9.20;99.90;;;;;;5035567;28;20031;-81
2021/11/21 16:19:35;;;;;;;12.43;8.50;;;9.20;99.90;;;;;;5034315;28;20369;-83
2021/11/21 16:22:01;;;;;;;14.25;8.23;;;9.20;99.90;;;;;;5034285;28;20026;-80
2021/11/21 16:24:27;;;;;;;14.68;8.48;;;9.10;99.90;;;;;;5035229;28;20133;-80
2021/11/21 16:26:52;;;;;;;16.10;9.02;;;9.10;99.90;;;;;;5035237;28;20108;-79
2021/11/21 16:29:19;;;;;;;15.30;9.07;;;9.10;99.90;;;;;;5045227;28;20033;-79
2021/11/21 16:31:46;;;;;;;47.47;23.40;;;9.00;99.90;;;;;;5053917;28;20455;-81
2021/11/21 16:34:13;;;;;;;52.95;28.48;;;9.00;99.90;;;;;;5054011;28;20028;-79
2021/11/21 16:36:39;;;;;;;35.17;18.73;;;9.00;99.90;;;;;;5055096;28;20033;-80
2021/11/21 16:39:06;;;;;;;33.83;19.73;;;9.00;99.90;;;;;;5055043;28;20025;-80
2021/11/21 16:41:35;;;;;;;20.20;12.02;;;9.00;99.90;;;;;;5055039;28;20025;-80
2021/11/21 16:44:07;;;;;;;26.58;17.67;;;9.00;99.90;;;;;;5041047;28;20463;-81
2021/11/21 16:46:33;;;;;;;34.60;20.90;;;9.10;99.90;;;;;;5035438;28;20406;-79
2021/11/21 16:48:59;;;;;;;28.88;18.33;;;9.10;99.90;;;;;;5032726;28;20022;-80
2021/11/21 16:51:26;;;;;;;33.17;22.27;;;9.10;99.90;;;;;;5034969;28;20044;-80
2021/11/21 16:53:52;;;;;;;23.88;16.67;;;9.10;99.90;;;;;;5033465;28;20482;-80
2021/11/21 16:56:20;;;;;;;21.30;14.93;;;9.10;99.90;;;;;;5033451;28;20025;-82
2021/11/21 16:58:46;;;;;;;17.52;11.38;;;9.10;99.90;;;;;;5033560;28;20026;-81
2021/11/21 17:01:15;;;;;;;16.75;10.18;;;9.10;99.90;;;;;;5034837;28;20017;-81
2021/11/21 17:03:42;;;;;;;21.37;13.37;;;9.10;99.90;;;;;;5047271;28;20135;-81
2021/11/21 17:06:08;;;;;;;23.27;12.73;;;9.00;99.90;;;;;;5052826;28;20025;-82
2021/11/21 17:08:34;;;;;;;15.90;9.40;;;9.00;99.90;;;;;;5053410;28;20043;-83
2021/11/21 17:10:59;;;;;;;18.88;10.40;;;9.00;99.90;;;;;;5053266;28;20078;-82
2021/11/21 17:13:25;;;;;;;15.52;9.57;;;9.00;99.90;;;;;;5053322;28;20407;-81
2021/11/21 17:15:51;;;;;;;23.95;13.85;;;8.90;99.90;;;;;;5042420;28;20430;-81
2021/11/21 17:18:17;;;;;;;58.28;33.30;;;8.80;99.90;;;;;;5034877;28;20474;-80
2021/11/21 17:20:43;;;;;;;25.17;15.93;;;8.90;99.90;;;;;;5053125;28;20117;-80
2021/11/21 17:23:11;;;;;;;19.20;12.20;;;8.80;99.90;;;;;;5044277;28;20171;-82
2021/11/21 17:25:38;;;;;;;32.83;17.88;;;8.70;99.90;;;;;;5052611;28;20049;-81
2021/11/21 17:28:04;;;;;;;24.65;14.60;;;8.60;99.90;;;;;;5046103;28;20029;-81
2021/11/21 17:30:29;;;;;;;67.80;32.33;;;8.60;99.90;;;;;;5048649;28;20104;-81
2021/11/21 17:32:56;;;;;;;70.50;41.50;;;8.60;99.90;;;;;;5054031;28;20025;-81
2021/11/21 17:35:22;;;;;;;56.25;32.58;;;8.50;99.90;;;;;;5052077;28;20025;-81
2021/11/21 17:37:48;;;;;;;23.13;13.15;;;8.50;99.90;;;;;;5034195;28;20047;-81
2021/11/21 17:40:16;;;;;;;24.00;13.82;;;8.40;99.90;;;;;;5034130;28;20484;-81
2021/11/21 17:42:46;;;;;;;38.60;22.58;;;8.40;99.90;;;;;;5033849;28;20037;-81
2021/11/21 17:45:13;;;;;;;29.35;17.40;;;8.40;99.90;;;;;;5032465;28;20101;-85
2021/11/21 17:47:57;;;;;;;26.58;16.33;;;8.40;99.90;;;;;;5034290;28;20075;-84
2021/11/21 17:50:22;;;;;;;28.48;16.52;;;8.30;99.90;;;;;;5034471;28;20087;-85
2021/11/21 17:52:49;;;;;;;20.98;13.23;;;8.30;99.90;;;;;;5032495;28;20025;-84
2021/11/21 17:55:16;;;;;;;22.60;13.85;;;8.40;99.90;;;;;;5051642;28;20067;-85
2021/11/21 17:57:44;;;;;;;19.95;12.13;;;8.40;99.90;;;;;;5050390;28;20025;-86
2021/11/21 18:00:12;;;;;;;18.05;12.20;;;8.40;99.90;;;;;;5053139;28;20057;-83
2021/11/21 18:02:39;;;;;;;23.48;13.48;;;8.40;99.90;;;;;;5053512;28;20100;-87
2021/11/21 18:05:06;;;;;;;19.63;12.90;;;8.30;99.90;;;;;;5052226;28;20035;-84
2021/11/21 18:07:32;;;;;;;21.25;12.38;;;8.30;99.90;;;;;;5052209;28;20074;-85
2021/11/21 18:09:58;;;;;;;16.75;11.18;;;8.30;99.90;;;;;;5053430;28;20414;-85
2021/11/21 18:12:24;;;;;;;13.57;10.13;;;8.20;99.90;;;;;;5052142;28;20116;-87
2021/11/21 18:14:49;;;;;;;17.17;9.95;;;8.30;99.90;;;;;;5053315;28;20025;-84
2021/11/21 18:17:15;;;;;;;12.55;8.85;;;8.20;99.90;;;;;;5051328;28;20037;-86
2021/11/21 18:19:43;;;;;;;13.43;8.52;;;8.20;99.90;;;;;;5052025;28;20114;-87
2021/11/21 18:22:09;;;;;;;10.85;7.95;;;8.20;99.90;;;;;;5053251;28;20021;-86
2021/11/21 18:24:38;;;;;;;9.68;7.60;;;8.10;99.90;;;;;;5053151;28;20068;-87
2021/11/21 18:27:05;;;;;;;12.00;8.45;;;8.10;99.90;;;;;;5052076;28;20514;-85
2021/11/21 18:29:31;;;;;;;18.67;12.10;;;8.10;99.90;;;;;;5052113;28;20104;-86
2021/11/21 18:31:56;;;;;;;16.42;11.38;;;8.10;99.90;;;;;;5052007;28;20383;-86
2021/11/21 18:34:22;;;;;;;17.50;11.63;;;7.90;99.90;;;;;;5050149;28;20025;-85
2021/11/21 18:36:48;;;;;;;18.45;11.88;;;7.90;99.90;;;;;;5043664;28;20124;-86
2021/11/21 18:39:15;;;;;;;20.30;11.38;;;7.80;99.90;;;;;;5033339;28;20030;-86
2021/11/21 18:41:41;;;;;;;19.88;12.35;;;7.80;99.90;;;;;;5033206;28;20026;-86
2021/11/21 18:44:09;;;;;;;26.20;15.05;;;7.80;99.90;;;;;;5034033;28;20025;-85
2021/11/21 18:46:38;;;;;;;20.02;11.25;;;7.80;99.90;;;;;;5031710;28;20029;-86
2021/11/21 18:49:04;;;;;;;18.50;11.30;;;7.80;99.90;;;;;;5031790;28;20048;-85
2021/11/21 18:51:30;;;;;;;16.55;10.20;;;7.80;99.90;;;;;;5031811;28;20034;-85
2021/11/21 18:53:56;;;;;;;19.75;12.75;;;7.80;99.90;;;;;;5031773;28;20025;-85
2021/11/21 18:56:31;;;;;;;17.45;11.35;;;7.70;99.90;;;;;;5031731;28;20426;-85
2021/11/21 18:58:59;;;;;;;18.27;12.15;;;7.70;99.90;;;;;;5033111;28;20045;-85
2021/11/21 19:01:26;;;;;;;19.08;12.02;;;7.70;99.90;;;;;;5032090;28;20029;-85
2021/11/21 19:03:54;;;;;;;19.92;12.43;;;7.70;99.90;;;;;;5039499;28;20028;-86
2021/11/21 19:06:20;;;;;;;16.88;11.75;;;7.70;99.90;;;;;;5051637;28;20108;-85
2021/11/21 19:08:46;;;;;;;19.08;11.45;;;7.70;99.90;;;;;;5051619;28;20036;-87
2021/11/21 19:11:12;;;;;;;18.20;11.63;;;7.60;99.90;;;;;;5052763;28;20092;-86
2021/11/21 19:13:38;;;;;;;16.92;10.98;;;7.60;99.90;;;;;;5055539;28;20029;-87
2021/11/21 19:16:04;;;;;;;18.58;12.23;;;7.60;99.90;;;;;;5056875;28;20024;-85
2021/11/21 19:18:30;;;;;;;37.38;21.40;;;7.60;99.90;;;;;;5056564;28;20029;-87
2021/11/21 19:20:56;;;;;;;24.67;15.82;;;7.50;99.90;;;;;;5056664;28;20033;-86
2021/11/21 19:23:26;;;;;;;37.53;22.90;;;7.60;99.90;;;;;;5055733;28;20091;-87
2021/11/21 19:25:54;;;;;;;30.52;19.20;;;7.60;99.90;;;;;;5055119;28;20446;-86
2021/11/21 19:28:20;;;;;;;20.70;12.70;;;7.50;99.90;;;;;;5056765;28;20103;-86
2021/11/21 19:30:46;;;;;;;23.27;13.82;;;7.50;99.90;;;;;;5053510;28;20184;-86
2021/11/21 19:33:13;;;;;;;18.85;12.57;;;7.50;99.90;;;;;;5036552;28;20028;-87
2021/11/21 19:35:39;;;;;;;19.15;12.30;;;7.50;99.90;;;;;;5035199;28;20029;-85
2021/11/21 19:38:05;;;;;;;22.05;13.70;;;7.40;99.90;;;;;;5035158;28;20434;-85
2021/11/21 19:40:34;;;;;;;20.65;13.52;;;7.40;99.90;;;;;;5036460;28;20029;-87
2021/11/21 19:43:00;;;;;;;20.98;12.82;;;7.40;99.90;;;;;;5036894;28;20036;-87
2021/11/21 19:45:33;;;;;;;18.27;11.73;;;7.40;99.90;;;;;;5036176;28;20036;-92
2021/11/21 19:48:01;;;;;;;25.83;16.35;;;7.40;99.90;;;;;;5035776;28;20035;-89
2021/11/21 19:50:27;;;;;;;24.58;13.35;;;7.40;99.90;;;;;;5045334;28;20021;-95
2021/11/21 19:52:54;;;;;;;21.02;13.40;;;7.40;99.90;;;;;;5056295;28;20021;-92
2021/11/21 19:55:22;;;;;;;19.67;12.98;;;7.40;99.90;;;;;;5055846;28;20025;-91
2021/11/21 19:57:48;;;;;;;19.63;12.45;;;7.40;99.90;;;;;;5055650;28;20029;-91
2021/11/21 20:00:19;;;;;;;21.65;13.55;;;7.30;99.90;;;;;;5055634;28;20356;-91
2021/11/21 20:02:46;;;;;;;20.55;13.45;;;7.40;99.90;;;;;;5055648;28;20028;-92
2021/11/21 20:05:13;;;;;;;21.95;13.30;;;7.30;99.90;;;;;;5056017;28;20044;-89
2021/11/21 20:07:40;;;;;;;54.75;35.28;;;7.30;99.90;;;;;;5055212;28;20021;-93
2021/11/21 20:10:20;;;;;;;25.75;16.90;;;7.30;99.90;;;;;;5052811;28;20047;-92
2021/11/21 20:12:47;;;;;;;27.88;15.88;;;7.30;99.90;;;;;;5055924;28;20395;-92
2021/11/21 20:15:14;;;;;;;20.55;13.63;;;7.20;99.90;;;;;;5055283;28;20025;-91
2021/11/21 20:17:40;;;;;;;19.45;13.43;;;7.20;99.90;;;;;;5055283;28;20028;-92
2021/11/21 20:20:07;;;;;;;16.70;12.18;;;7.20;99.90;;;;;;5055349;28;20029;-91
2021/11/21 20:22:33;;;;;;;22.63;14.90;;;7.20;99.90;;;;;;5055351;28;20032;-92
2021/11/21 20:24:59;;;;;;;23.05;15.20;;;7.10;99.90;;;;;;5054923;28;20068;-92
2021/11/21 20:27:25;;;;;;;24.20;14.77;;;7.10;99.90;;;;;;5055721;28;20025;-93
2021/11/21 20:29:52;;;;;;;20.77;13.75;;;7.10;99.90;;;;;;5055521;28;20124;-91
2021/11/21 20:35:05;;;;;;;19.20;12.45;;;7.10;99.90;;;;;;5056281;28;20048;-94
2021/11/21 20:37:31;;;;;;;21.88;13.30;;;7.10;99.90;;;;;;5044395;28;20030;-93
2021/11/21 20:40:01;;;;;;;20.65;12.98;;;7.00;99.90;;;;;;5035426;28;20026;-92
2021/11/21 20:42:27;;;;;;;21.00;12.93;;;7.10;99.90;;;;;;5035155;28;20391;-92
2021/11/21 20:44:53;;;;;;;20.25;13.32;;;7.10;99.90;;;;;;5035182;28;20124;-92
2021/11/21 20:47:24;;;;;;;20.88;12.82;;;7.10;99.90;;;;;;5045936;28;20032;-93
2021/11/21 20:49:49;;;;;;;;;;;7.10;99.90;;;;;;5055260;28;20047;-93
2021/11/21 20:52:15;;;;;;;18.05;12.85;;;7.00;99.90;;;;;;5055335;28;19932;-93
2021/11/21 20:54:41;;;;;;;20.33;12.98;;;7.10;99.90;;;;;;5055029;28;20031;-91